^^
Meteo Knjazevac Station Historical Data
Daily Summary for September 27, 2021 Units:  Both    English   Metric
Daily Weekly Monthly Yearly Custom
  High: Low: Average:
Temperature: 55.2 °F /  12.9 °C 50.7 °F /  10.4 °C 52.6 °F /  11.4 °C
Dew Point: 48.8 °F /  9.3 °C 46.9 °F /  8.3 °C 47.8 °F /  8.8 °C
Humidity: 89% 79% 84%
Wind Speed: 1mph /  1.6km/h - 0.6mph /  1km/h
Wind Gust: 6mph /  9.7km/h - -
Wind- - WSW
Pressure: 30.16 in /  1021.2 hPa 30.15 in /  1020.9 hPa -
Precipitation: 0.00 in /  0 mm    
Historical Graphs
 
 
Tabular Data for September 27, 2021
Time Temperature Dew Point Pressure Wind Wind Speed Wind Gust Humidity Rainfall Rate (Hourly) solar Conditions
00:00 55.2 °F /  12.9 °C 48.8 °F /  9.3 °C 30.16in /  1021.2hPa WNW 1mph /  1.6km/h 2mph /  3.2km/h 79% 0.00in /  0mm 0 W/m2
00:10 54.9 °F /  12.7 °C 48.5 °F /  9.2 °C 30.15in /  1020.9hPa Calm   2mph /  3.2km/h 79% 0.00in /  0mm 0 W/m2
00:20 54.7 °F /  12.6 °C 48.6 °F /  9.2 °C 30.15in /  1020.9hPa Calm     80% 0.00in /  0mm 0 W/m2
00:30 54.3 °F /  12.4 °C 48.3 °F /  9.1 °C 30.15in /  1020.9hPa NW 1mph /  1.6km/h 2mph /  3.2km/h 80% 0.00in /  0mm 0 W/m2
00:40 54.1 °F /  12.3 °C 48.1 °F /  8.9 °C 30.15in /  1020.9hPa Calm   2mph /  3.2km/h 80% 0.00in /  0mm 0 W/m2
00:50 53.8 °F /  12.1 °C 48.1 °F /  8.9 °C 30.16in /  1021.2hPa Calm   2mph /  3.2km/h 81% 0.00in /  0mm 0 W/m2
01:00 53.6 °F /  12 °C 47.9 °F /  8.8 °C 30.16in /  1021.2hPa Calm   1mph /  1.6km/h 81% 0.00in /  0mm 0 W/m2
01:10 53.2 °F /  11.8 °C 47.6 °F /  8.7 °C 30.16in /  1021.2hPa NNW 1mph /  1.6km/h 3mph /  4.8km/h 81% 0.00in /  0mm 0 W/m2
01:20 53.1 °F /  11.7 °C 48 °F /  8.9 °C 30.16in /  1021.2hPa WNW 1mph /  1.6km/h 3mph /  4.8km/h 83% 0.00in /  0mm 0 W/m2
01:30 53.1 °F /  11.7 °C 48.4 °F /  9.1 °C 30.15in /  1020.9hPa WNW 1mph /  1.6km/h 3mph /  4.8km/h 84% 0.00in /  0mm 0 W/m2
01:40 52.9 °F /  11.6 °C 48.2 °F /  9 °C 30.15in /  1020.9hPa Calm   3mph /  4.8km/h 84% 0.00in /  0mm 0 W/m2
01:50 52.7 °F /  11.5 °C 47.7 °F /  8.7 °C 30.15in /  1020.9hPa WNW 1mph /  1.6km/h 2mph /  3.2km/h 83% 0.00in /  0mm 0 W/m2
02:00 52.4 °F /  11.3 °C 47.4 °F /  8.6 °C 30.15in /  1020.9hPa Calm   2mph /  3.2km/h 83% 0.00in /  0mm 0 W/m2
02:10 52.3 °F /  11.3 °C 47.6 °F /  8.7 °C 30.15in /  1020.9hPa West 1mph /  1.6km/h 2mph /  3.2km/h 84% 0.00in /  0mm 0 W/m2
02:20 52 °F /  11.1 °C 47.3 °F /  8.5 °C 30.15in /  1020.9hPa NW 1mph /  1.6km/h 3mph /  4.8km/h 84% 0.00in /  0mm 0 W/m2
02:30 51.6 °F /  10.9 °C 46.9 °F /  8.3 °C 30.15in /  1020.9hPa Calm   2mph /  3.2km/h 84% 0.00in /  0mm 0 W/m2
02:40 51.4 °F /  10.8 °C 47.1 °F /  8.4 °C 30.15in /  1020.9hPa Calm   2mph /  3.2km/h 85% 0.00in /  0mm 0 W/m2
02:50 51.4 °F /  10.8 °C 47.3 °F /  8.5 °C 30.16in /  1021.2hPa NNW 1mph /  1.6km/h 2mph /  3.2km/h 86% 0.00in /  0mm 0 W/m2
03:00 51.1 °F /  10.6 °C 47 °F /  8.3 °C 30.16in /  1021.2hPa WNW 1mph /  1.6km/h 2mph /  3.2km/h 86% 0.00in /  0mm 0 W/m2
03:10 51.3 °F /  10.7 °C 47.8 °F /  8.8 °C 30.16in /  1021.2hPa SSW 1mph /  1.6km/h 2mph /  3.2km/h 88% 0.00in /  0mm 0 W/m2
03:20 51.1 °F /  10.6 °C 47.6 °F /  8.7 °C 30.15in /  1020.9hPa North 1mph /  1.6km/h 2mph /  3.2km/h 88% 0.00in /  0mm 0 W/m2
03:30 51.2 °F /  10.7 °C 48 °F /  8.9 °C 30.15in /  1020.9hPa Calm   2mph /  3.2km/h 89% 0.00in /  0mm 0 W/m2
03:40 51.1 °F /  10.6 °C 47.6 °F /  8.7 °C 30.15in /  1020.9hPa NNW 1mph /  1.6km/h 2mph /  3.2km/h 88% 0.00in /  0mm 0 W/m2
03:50 50.7 °F /  10.4 °C 47.3 °F /  8.5 °C 30.15in /  1020.9hPa Calm   2mph /  3.2km/h 88% 0.00in /  0mm 0 W/m2
04:00 50.7 °F /  10.4 °C 47.3 °F /  8.5 °C 30.15in /  1020.9hPa NE 1mph /  1.6km/h 6mph /  9.7km/h 88% 0.00in /  0mm 0 W/m2
Knjazevac, Serbia
Compliments of Weather Underground - 2 mb